Time;durP1;ratioP1;P1;durP2;ratioP2;P2;SDS_P1;SDS_P2;PMS_P1;PMS_P2;Temp;Humidity;BMP_temperature;BMP_pressure;BME280_temperature;BME280_humidity;BME280_pressure;Samples;Min_cycle;Max_cycle;Signal;HPM_P1;HPM_P2
2021/05/30 00:00:45;;;;;;;4.87;4.20;;;11.60;78.40;;;;;;5030773;28;20412;-76
2021/05/30 00:03:10;;;;;;;9.87;4.83;;;11.60;78.60;;;;;;5044868;28;20438;-77
2021/05/30 00:05:36;;;;;;;5.73;4.67;;;11.60;78.30;;;;;;5030846;28;20277;-75
2021/05/30 00:08:02;;;;;;;7.17;4.67;;;11.50;78.60;;;;;;5047484;28;20267;-76
2021/05/30 00:10:29;;;;;;;8.30;4.43;;;11.50;78.60;;;;;;5039345;28;20189;-76
2021/05/30 00:12:55;;;;;;;5.77;4.30;;;11.40;78.60;;;;;;5035037;28;20208;-79
2021/05/30 00:15:21;;;;;;;6.90;4.60;;;11.40;78.30;;;;;;5050207;28;20490;-74
2021/05/30 00:17:47;;;;;;;6.87;3.70;;;11.40;78.60;;;;;;5047950;28;20209;-76
2021/05/30 00:20:13;;;;;;;6.63;4.20;;;11.40;78.10;;;;;;5041399;28;20423;-76
2021/05/30 00:22:39;;;;;;;7.10;4.00;;;11.40;77.60;;;;;;5047400;28;20606;-76
2021/05/30 00:25:07;;;;;;;5.60;3.43;;;11.30;77.10;;;;;;5041989;28;20461;-76
2021/05/30 00:27:33;;;;;;;4.80;3.20;;;11.40;77.10;;;;;;5037831;28;20295;-77
2021/05/30 00:30:00;;;;;;;6.03;3.50;;;11.30;77.00;;;;;;5040146;28;20420;-75
2021/05/30 00:32:25;;;;;;;6.13;4.60;;;11.30;77.80;;;;;;5044374;28;20443;-77
2021/05/30 00:34:53;;;;;;;5.23;3.90;;;11.30;77.80;;;;;;5042763;28;20936;-76
2021/05/30 00:37:19;;;;;;;5.97;4.17;;;11.40;78.40;;;;;;5038016;28;20750;-77
2021/05/30 00:39:45;;;;;;;6.07;4.30;;;11.30;77.80;;;;;;5041378;28;20507;-76
2021/05/30 00:42:10;;;;;;;7.07;4.00;;;11.40;78.30;;;;;;5034153;28;20189;-76
2021/05/30 00:44:36;;;;;;;6.00;3.30;;;11.40;78.30;;;;;;5020678;28;20268;-76
2021/05/30 00:47:02;;;;;;;3.87;2.90;;;11.30;77.60;;;;;;5045110;28;20288;-76
2021/05/30 00:49:28;;;;;;;4.57;3.07;;;11.30;77.40;;;;;;5049276;28;20242;-75
2021/05/30 00:51:55;;;;;;;4.00;3.33;;;11.30;77.30;;;;;;5037396;28;20422;-77
2021/05/30 00:54:21;;;;;;;3.37;2.60;;;11.20;77.30;;;;;;5049828;28;20199;-75
2021/05/30 00:56:47;;;;;;;6.00;3.47;;;11.10;77.10;;;;;;5033001;28;20507;-75
2021/05/30 00:59:13;;;;;;;6.70;4.20;;;11.10;77.10;;;;;;5045128;28;20430;-75
2021/05/30 01:01:40;;;;;;;7.77;4.67;;;11.10;77.40;;;;;;5038139;28;20929;-74
2021/05/30 01:04:07;;;;;;;7.23;4.33;;;11.00;78.90;;;;;;5040059;28;20430;-77
2021/05/30 01:06:33;;;;;;;8.70;4.47;;;11.00;79.90;;;;;;5044022;28;20447;-75
2021/05/30 01:09:01;;;;;;;6.90;4.50;;;11.10;80.00;;;;;;5040218;28;20442;-78
2021/05/30 01:11:27;;;;;;;6.73;3.83;;;11.00;80.20;;;;;;5027824;28;20428;-76
2021/05/30 01:13:54;;;;;;;6.70;3.90;;;10.90;80.80;;;;;;5034141;28;20433;-77
2021/05/30 01:16:21;;;;;;;7.80;4.77;;;10.80;81.40;;;;;;5043808;28;20472;-78
2021/05/30 01:18:49;;;;;;;12.33;4.63;;;10.70;81.70;;;;;;5030638;28;20420;-77
2021/05/30 01:21:15;;;;;;;6.70;4.40;;;10.60;82.20;;;;;;5036314;28;20415;-76
2021/05/30 01:23:41;;;;;;;5.90;3.73;;;10.60;82.40;;;;;;5037951;28;20486;-76
2021/05/30 01:26:07;;;;;;;4.80;3.70;;;10.50;82.80;;;;;;5043684;28;20459;-76
2021/05/30 01:28:33;;;;;;;7.30;3.80;;;10.60;82.20;;;;;;5029154;28;20443;-77
2021/05/30 01:30:59;;;;;;;6.70;4.17;;;10.60;81.80;;;;;;5043665;28;20444;-75
2021/05/30 01:33:25;;;;;;;5.00;4.00;;;10.60;81.90;;;;;;5030868;28;20674;-76
2021/05/30 01:35:51;;;;;;;7.57;4.30;;;10.60;81.80;;;;;;5047780;28;20499;-76
2021/05/30 01:38:16;;;;;;;5.20;4.00;;;10.60;81.90;;;;;;5045850;28;20575;-77
2021/05/30 01:40:42;;;;;;;6.33;4.27;;;10.50;82.20;;;;;;5049329;28;20238;-76
2021/05/30 01:43:08;;;;;;;8.07;4.80;;;10.50;82.80;;;;;;5038933;28;20709;-75
2021/05/30 01:45:34;;;;;;;8.13;4.70;;;10.50;82.80;;;;;;5062049;28;20425;-75
2021/05/30 01:48:02;;;;;;;8.67;4.37;;;10.40;82.80;;;;;;5055544;28;20447;-76
2021/05/30 01:50:32;;;;;;;9.10;4.80;;;10.40;83.70;;;;;;5045201;28;20422;-75
2021/05/30 01:53:03;;;;;;;7.97;4.17;;;10.50;83.70;;;;;;5042074;28;20424;-76
2021/05/30 01:58:14;;;;;;;6.10;4.33;;;10.50;83.80;;;;;;5041100;28;20425;-77
2021/05/30 02:00:40;;;;;;;6.90;4.50;;;10.40;83.80;;;;;;5044358;28;20424;-75
2021/05/30 02:03:07;;;;;;;7.70;4.70;;;10.30;84.40;;;;;;5037074;28;20468;-76
2021/05/30 02:05:34;;;;;;;6.63;4.77;;;10.30;84.90;;;;;;5042656;28;20204;-76
2021/05/30 02:08:00;;;;;;;8.20;4.70;;;10.20;84.90;;;;;;5047385;28;20447;-77
2021/05/30 02:10:26;;;;;;;8.83;5.03;;;10.20;85.00;;;;;;5044573;28;20476;-75
2021/05/30 02:12:54;;;;;;;6.07;4.30;;;10.10;85.70;;;;;;5054420;28;20414;-76
2021/05/30 02:15:20;;;;;;;6.77;4.30;;;10.30;85.50;;;;;;5053184;28;20840;-76
2021/05/30 02:17:47;;;;;;;8.33;4.73;;;10.30;84.90;;;;;;5049773;28;20455;-78
2021/05/30 02:20:14;;;;;;;7.10;4.77;;;10.30;84.70;;;;;;5058028;28;20430;-76
2021/05/30 02:22:40;;;;;;;9.30;5.47;;;10.30;85.00;;;;;;5056609;28;20921;-77
2021/05/30 02:25:08;;;;;;;6.73;4.40;;;10.30;85.00;;;;;;5047625;28;20427;-78
2021/05/30 02:27:35;;;;;;;6.83;4.93;;;10.30;85.20;;;;;;5034154;28;20248;-76
2021/05/30 02:30:00;;;;;;;11.33;5.40;;;10.30;85.20;;;;;;5047155;28;20859;-76
2021/05/30 02:32:26;;;;;;;5.13;4.30;;;10.30;85.00;;;;;;5041019;28;20454;-77
2021/05/30 02:34:52;;;;;;;6.70;4.50;;;10.20;85.50;;;;;;5042152;28;20197;-75
2021/05/30 02:37:18;;;;;;;7.40;5.03;;;10.30;85.60;;;;;;5039123;28;20586;-75
2021/05/30 02:39:45;;;;;;;7.03;4.63;;;10.30;85.50;;;;;;5039737;28;20185;-75
2021/05/30 02:42:12;;;;;;;6.63;4.90;;;10.30;85.60;;;;;;5048716;28;20432;-77
2021/05/30 02:44:39;;;;;;;6.37;4.33;;;10.20;85.60;;;;;;5033027;28;20565;-74
2021/05/30 02:47:05;;;;;;;7.10;4.57;;;10.20;85.60;;;;;;5050374;28;20797;-74
2021/05/30 02:49:32;;;;;;;7.23;4.53;;;10.20;85.60;;;;;;5043256;28;20419;-75
2021/05/30 02:51:59;;;;;;;7.37;4.80;;;10.20;86.00;;;;;;5048694;28;21165;-74
2021/05/30 02:54:24;;;;;;;6.83;4.77;;;10.10;86.20;;;;;;5042834;28;20424;-74
2021/05/30 02:56:50;;;;;;;9.90;5.00;;;10.10;86.20;;;;;;5048891;28;20474;-76
2021/05/30 02:59:16;;;;;;;9.37;5.43;;;10.10;86.00;;;;;;5052006;28;20420;-74
2021/05/30 03:01:42;;;;;;;9.30;5.17;;;10.10;86.00;;;;;;5040636;28;20698;-75
2021/05/30 03:04:07;;;;;;;7.93;5.70;;;10.10;86.20;;;;;;5042608;28;20177;-75
2021/05/30 03:06:33;;;;;;;8.57;5.13;;;10.00;86.30;;;;;;5039176;28;20291;-76
2021/05/30 03:08:59;;;;;;;8.00;5.70;;;10.00;86.50;;;;;;5040991;28;20193;-75
2021/05/30 03:11:26;;;;;;;8.30;5.33;;;9.90;86.60;;;;;;5038140;28;20466;-78
2021/05/30 03:13:53;;;;;;;14.30;5.27;;;9.90;86.90;;;;;;5042200;28;20430;-76
2021/05/30 03:16:19;;;;;;;7.77;4.83;;;9.90;86.90;;;;;;5032764;28;20487;-74
2021/05/30 03:18:45;;;;;;;8.07;5.40;;;9.90;86.80;;;;;;5034369;28;20416;-75
2021/05/30 03:21:12;;;;;;;11.17;5.90;;;9.90;86.80;;;;;;5036560;28;20874;-75
2021/05/30 03:23:37;;;;;;;8.30;5.40;;;9.90;86.90;;;;;;5039162;28;20428;-75
2021/05/30 03:26:03;;;;;;;12.07;6.23;;;9.80;87.10;;;;;;5040019;28;20492;-76
2021/05/30 03:28:29;;;;;;;9.80;5.00;;;9.80;87.30;;;;;;5054484;28;20188;-78
2021/05/30 03:30:55;;;;;;;9.73;5.90;;;9.80;87.30;;;;;;5055967;28;20755;-74
2021/05/30 03:33:21;;;;;;;8.97;6.00;;;9.80;87.40;;;;;;5052662;28;20518;-76
2021/05/30 03:35:47;;;;;;;10.20;5.73;;;9.80;87.40;;;;;;5051780;28;20200;-75
2021/05/30 03:38:15;;;;;;;8.07;5.23;;;9.80;87.40;;;;;;5040944;28;20820;-76
2021/05/30 03:43:08;;;;;;;12.30;5.63;;;9.70;87.60;;;;;;5021098;28;20416;-75
2021/05/30 03:45:34;;;;;;;9.63;5.23;;;9.80;87.80;;;;;;5035308;28;20199;-74
2021/05/30 03:48:00;;;;;;;7.63;5.20;;;9.80;87.80;;;;;;5038883;28;20448;-77
2021/05/30 03:50:27;;;;;;;9.00;4.90;;;9.90;87.70;;;;;;5050372;28;20430;-76
2021/05/30 03:52:53;;;;;;;11.10;5.80;;;9.80;87.60;;;;;;5052012;28;20177;-76
2021/05/30 03:55:20;;;;;;;8.43;5.33;;;9.80;87.60;;;;;;5038413;28;20558;-76
2021/05/30 03:57:46;;;;;;;7.90;5.50;;;9.90;87.60;;;;;;5039233;28;20454;-77
2021/05/30 04:00:18;;;;;;;8.63;5.30;;;9.90;87.40;;;;;;5050026;28;20536;-77
2021/05/30 04:02:45;;;;;;;14.33;6.03;;;9.90;87.40;;;;;;5037727;28;20459;-77
2021/05/30 04:05:15;;;;;;;9.77;5.23;;;9.80;87.60;;;;;;5031979;28;20798;-76
2021/05/30 04:07:43;;;;;;;15.80;5.73;;;9.90;87.40;;;;;;5045372;28;20450;-76
2021/05/30 04:10:11;;;;;;;12.13;5.90;;;9.80;87.40;;;;;;5044229;28;20515;-76
2021/05/30 04:12:38;;;;;;;7.03;4.97;;;9.80;87.60;;;;;;5045096;28;20934;-76
2021/05/30 04:15:06;;;;;;;8.13;5.13;;;9.80;87.70;;;;;;5039396;28;21098;-75
2021/05/30 04:17:31;;;;;;;9.83;5.00;;;9.80;87.70;;;;;;5036501;28;20436;-75
2021/05/30 04:19:57;;;;;;;10.10;5.57;;;9.80;87.60;;;;;;5039265;28;20426;-76
2021/05/30 04:22:23;;;;;;;8.90;5.03;;;9.80;87.10;;;;;;5051524;28;20172;-75
2021/05/30 04:24:48;;;;;;;10.13;6.20;;;9.80;87.10;;;;;;5051389;28;20206;-75
2021/05/30 04:27:14;;;;;;;10.13;5.50;;;9.90;87.30;;;;;;5038025;28;20201;-77
2021/05/30 04:29:40;;;;;;;7.77;5.43;;;9.90;87.40;;;;;;5042878;28;20174;-75
2021/05/30 04:32:06;;;;;;;11.10;6.50;;;9.90;87.40;;;;;;5018855;28;20656;-76
2021/05/30 04:34:32;;;;;;;6.50;4.57;;;9.90;87.40;;;;;;5039965;28;20185;-76
2021/05/30 04:36:58;;;;;;;9.43;5.43;;;9.90;87.40;;;;;;5048283;28;20955;-77
2021/05/30 04:39:25;;;;;;;6.27;4.63;;;9.90;87.60;;;;;;5039419;28;20558;-76
2021/05/30 04:41:52;;;;;;;8.60;5.77;;;9.90;87.70;;;;;;5046050;28;20905;-78
2021/05/30 04:44:17;;;;;;;9.60;5.77;;;9.90;87.60;;;;;;5043328;28;20426;-76
2021/05/30 04:46:43;;;;;;;7.40;5.20;;;9.90;87.70;;;;;;5044315;28;20458;-77
2021/05/30 04:49:09;;;;;;;13.17;6.13;;;9.90;87.80;;;;;;5042834;28;20189;-76
2021/05/30 04:51:34;;;;;;;8.23;4.97;;;10.00;87.70;;;;;;5032283;28;20193;-76
2021/05/30 04:54:00;;;;;;;11.67;5.80;;;10.10;87.70;;;;;;5050495;28;20180;-76
2021/05/30 04:56:26;;;;;;;8.00;5.00;;;10.20;87.00;;;;;;5035600;28;20204;-76
2021/05/30 04:58:52;;;;;;;8.80;4.67;;;10.30;86.80;;;;;;5029869;28;20173;-78
2021/05/30 05:01:18;;;;;;;8.90;5.87;;;10.30;86.60;;;;;;5042684;28;20259;-76
2021/05/30 05:03:44;;;;;;;9.03;5.30;;;10.40;86.20;;;;;;5041735;28;21013;-77
2021/05/30 05:06:10;;;;;;;8.30;5.30;;;10.50;85.90;;;;;;5030701;28;20446;-76
2021/05/30 05:08:36;;;;;;;7.33;5.40;;;10.60;85.60;;;;;;5041769;28;20491;-77
2021/05/30 05:11:01;;;;;;;8.67;5.50;;;10.70;85.30;;;;;;5030353;28;20184;-75
2021/05/30 05:13:27;;;;;;;9.30;5.63;;;10.70;84.90;;;;;;5028800;28;20423;-76
2021/05/30 05:15:54;;;;;;;10.57;5.90;;;10.70;84.70;;;;;;5032189;28;20550;-75
2021/05/30 05:18:23;;;;;;;8.10;5.50;;;10.80;84.60;;;;;;5020984;28;20177;-78
2021/05/30 05:20:49;;;;;;;8.20;5.27;;;10.90;84.10;;;;;;5029719;28;20971;-76
2021/05/30 05:23:19;;;;;;;7.27;5.20;;;11.00;83.80;;;;;;5038112;28;21016;-75
2021/05/30 05:26:01;;;;;;;9.63;5.60;;;11.00;83.80;;;;;;5050944;28;20419;-76
2021/05/30 05:28:27;;;;;;;9.77;5.80;;;11.10;83.30;;;;;;5050997;28;20401;-75
2021/05/30 05:30:53;;;;;;;9.80;5.60;;;11.10;82.40;;;;;;5051306;28;20521;-78
2021/05/30 05:33:19;;;;;;;11.47;5.70;;;11.20;82.20;;;;;;5049862;28;20183;-77
2021/05/30 05:35:45;;;;;;;9.37;5.73;;;11.30;82.20;;;;;;5051160;28;20196;-78
2021/05/30 05:38:10;;;;;;;7.43;5.87;;;11.30;82.20;;;;;;5051809;28;21230;-75
2021/05/30 05:40:36;;;;;;;10.17;5.60;;;11.40;81.90;;;;;;5042459;28;20432;-75
2021/05/30 05:43:04;;;;;;;10.00;6.30;;;11.50;81.80;;;;;;5042132;28;20269;-75
2021/05/30 05:45:30;;;;;;;11.43;6.10;;;11.50;81.40;;;;;;5033903;28;20493;-75
2021/05/30 05:47:56;;;;;;;8.17;5.53;;;11.60;80.80;;;;;;5027899;28;20973;-76
2021/05/30 05:50:23;;;;;;;12.87;6.07;;;11.70;80.00;;;;;;5018336;28;20423;-75
2021/05/30 05:52:50;;;;;;;8.40;5.50;;;11.70;79.50;;;;;;5032204;28;20436;-77
2021/05/30 05:55:18;;;;;;;9.97;6.13;;;11.80;79.50;;;;;;5034928;28;20463;-76
2021/05/30 05:57:47;;;;;;;9.10;5.87;;;11.80;79.00;;;;;;5030913;28;20439;-76
2021/05/30 06:00:15;;;;;;;9.93;5.80;;;11.90;79.00;;;;;;5030434;28;20798;-77
2021/05/30 06:02:42;;;;;;;9.70;5.80;;;12.00;77.80;;;;;;5029449;28;20420;-75
2021/05/30 06:05:09;;;;;;;12.07;5.37;;;12.00;77.70;;;;;;5034374;28;20806;-76
2021/05/30 06:07:38;;;;;;;9.60;5.33;;;12.20;77.10;;;;;;5049004;28;20435;-76
2021/05/30 06:10:04;;;;;;;8.67;6.00;;;12.10;76.50;;;;;;5036671;28;20484;-79
2021/05/30 06:12:30;;;;;;;9.10;5.47;;;12.20;76.20;;;;;;5037366;28;20416;-76
2021/05/30 06:14:56;;;;;;;8.57;5.00;;;12.10;75.80;;;;;;5015691;28;20511;-75
2021/05/30 06:17:23;;;;;;;8.20;5.30;;;12.10;75.90;;;;;;5043270;28;20576;-77
2021/05/30 06:19:48;;;;;;;10.47;6.33;;;12.00;76.40;;;;;;5024049;28;20192;-76
2021/05/30 06:22:16;;;;;;;9.97;6.13;;;12.10;76.10;;;;;;5053654;28;20419;-77
2021/05/30 06:24:43;;;;;;;8.33;5.60;;;12.10;76.20;;;;;;5020699;28;20191;-77
2021/05/30 06:27:09;;;;;;;8.93;5.20;;;12.10;76.50;;;;;;5033585;28;20538;-75
2021/05/30 06:29:34;;;;;;;8.00;5.27;;;12.20;76.10;;;;;;5046521;28;20926;-75
2021/05/30 06:32:00;;;;;;;6.90;4.83;;;12.50;75.70;;;;;;5046461;28;20503;-76
2021/05/30 06:34:27;;;;;;;6.47;4.13;;;12.70;74.30;;;;;;5039145;28;20658;-75
2021/05/30 06:36:54;;;;;;;7.97;4.93;;;12.80;73.20;;;;;;5039579;28;20329;-75
2021/05/30 06:39:21;;;;;;;8.43;4.73;;;12.90;72.70;;;;;;5045876;28;20490;-74
2021/05/30 06:41:47;;;;;;;7.93;5.20;;;13.10;72.30;;;;;;5027492;28;20438;-76
2021/05/30 06:44:13;;;;;;;9.60;4.70;;;13.20;71.40;;;;;;5053278;28;20465;-76
2021/05/30 06:46:38;;;;;;;9.57;4.63;;;13.30;70.80;;;;;;5039019;28;20447;-77
2021/05/30 06:49:04;;;;;;;8.77;4.37;;;13.40;70.20;;;;;;5027981;28;20220;-76
2021/05/30 06:51:31;;;;;;;10.03;5.17;;;13.50;70.20;;;;;;5051432;28;20226;-77
2021/05/30 06:53:59;;;;;;;6.37;4.53;;;13.50;69.80;;;;;;5040748;28;20818;-77
2021/05/30 06:56:25;;;;;;;6.53;4.03;;;13.40;69.80;;;;;;5038220;28;20483;-77
2021/05/30 06:58:51;;;;;;;5.97;4.10;;;13.60;69.90;;;;;;5053345;28;20411;-78
2021/05/30 07:01:19;;;;;;;6.20;4.03;;;13.60;68.80;;;;;;5039508;28;20420;-78
2021/05/30 07:03:45;;;;;;;4.70;3.80;;;13.70;68.50;;;;;;5026073;28;20420;-76
2021/05/30 07:06:11;;;;;;;4.30;3.60;;;13.80;69.10;;;;;;5039891;28;20592;-77
2021/05/30 07:08:37;;;;;;;6.20;4.80;;;14.00;68.60;;;;;;5041125;28;20924;-77
2021/05/30 07:11:02;;;;;;;9.53;4.60;;;14.00;67.70;;;;;;5055174;28;20185;-76
2021/05/30 07:13:29;;;;;;;6.80;4.47;;;14.10;67.70;;;;;;5034823;28;20193;-77
2021/05/30 07:15:54;;;;;;;6.60;4.30;;;14.10;67.50;;;;;;5042830;28;20204;-77
2021/05/30 07:18:22;;;;;;;6.83;4.80;;;14.30;66.90;;;;;;5051253;28;20927;-80
2021/05/30 07:20:48;;;;;;;7.27;5.20;;;14.40;67.20;;;;;;5054070;28;20652;-75
2021/05/30 07:23:15;;;;;;;11.53;4.90;;;14.50;66.40;;;;;;5047994;28;20422;-77
2021/05/30 07:25:41;;;;;;;11.10;4.73;;;14.50;66.60;;;;;;5047958;28;20430;-77
2021/05/30 07:28:07;;;;;;;9.73;5.17;;;14.50;66.30;;;;;;5043915;28;20455;-76
2021/05/30 07:30:33;;;;;;;9.10;5.30;;;14.60;65.60;;;;;;5047536;28;20436;-76
2021/05/30 07:33:01;;;;;;;7.60;4.80;;;14.60;65.30;;;;;;5043144;28;21085;-76
2021/05/30 07:35:30;;;;;;;6.77;4.50;;;14.50;65.60;;;;;;5034576;28;20467;-76
2021/05/30 07:37:57;;;;;;;6.07;4.30;;;14.50;65.60;;;;;;5042662;28;20497;-77
2021/05/30 07:40:23;;;;;;;9.03;4.70;;;14.60;64.80;;;;;;5027316;28;20542;-77
2021/05/30 07:42:49;;;;;;;8.00;4.33;;;14.90;63.40;;;;;;5040990;28;20965;-72
2021/05/30 07:45:16;;;;;;;7.03;3.97;;;15.10;61.70;;;;;;5037133;28;20545;-73
2021/05/30 07:47:43;;;;;;;7.30;3.83;;;15.20;61.20;;;;;;5038383;28;20233;-72
2021/05/30 07:50:10;;;;;;;6.70;4.60;;;15.40;60.40;;;;;;5028944;28;20572;-71
2021/05/30 07:52:36;;;;;;;5.43;3.90;;;15.40;59.30;;;;;;5039461;28;20945;-73
2021/05/30 07:55:03;;;;;;;6.73;4.00;;;15.50;58.00;;;;;;5032548;28;20795;-72
2021/05/30 07:57:29;;;;;;;7.83;3.93;;;15.50;58.00;;;;;;5038579;28;20447;-71
2021/05/30 07:59:55;;;;;;;15.20;5.27;;;15.60;57.60;;;;;;5042175;28;20437;-73
2021/05/30 08:02:20;;;;;;;14.67;7.60;;;15.80;56.90;;;;;;5039236;28;20876;-74
2021/05/30 08:04:46;;;;;;;7.70;5.27;;;15.70;54.90;;;;;;5030959;28;20304;-73
2021/05/30 08:07:12;;;;;;;9.80;5.27;;;15.80;55.40;;;;;;5035290;28;20220;-72
2021/05/30 08:09:38;;;;;;;8.63;4.33;;;15.90;55.60;;;;;;5035307;28;20199;-74
2021/05/30 08:12:05;;;;;;;5.90;3.83;;;16.10;53.20;;;;;;5038616;28;20319;-73
2021/05/30 08:14:31;;;;;;;5.20;3.80;;;16.00;51.60;;;;;;5036232;28;20204;-72
2021/05/30 08:16:58;;;;;;;5.70;4.00;;;16.00;51.60;;;;;;5037500;28;20477;-71
2021/05/30 08:19:24;;;;;;;13.73;5.73;;;16.10;51.20;;;;;;5035095;28;20194;-75
2021/05/30 08:21:50;;;;;;;5.90;3.77;;;16.20;50.50;;;;;;5038371;28;21185;-73
2021/05/30 08:24:16;;;;;;;5.83;3.47;;;16.30;50.30;;;;;;5041113;28;21235;-72
2021/05/30 08:26:42;;;;;;;8.10;4.30;;;16.40;50.70;;;;;;5039500;28;20829;-72
2021/05/30 08:29:08;;;;;;;6.67;4.67;;;16.40;51.20;;;;;;5035165;28;20597;-74
2021/05/30 08:31:34;;;;;;;12.80;7.43;;;16.40;51.00;;;;;;5037790;28;20572;-72
2021/05/30 08:34:00;;;;;;;13.63;5.87;;;16.50;48.90;;;;;;5028645;28;20582;-71
2021/05/30 08:36:27;;;;;;;8.40;4.83;;;16.60;48.20;;;;;;5039444;28;20226;-72
2021/05/30 08:38:53;;;;;;;8.07;4.37;;;16.60;48.60;;;;;;5034724;28;20435;-72
2021/05/30 08:41:20;;;;;;;6.40;3.50;;;16.80;47.50;;;;;;5024980;28;20535;-73
2021/05/30 08:43:46;;;;;;;7.53;4.70;;;16.90;46.30;;;;;;5029132;28;20271;-72
2021/05/30 08:46:12;;;;;;;7.00;4.07;;;17.00;47.50;;;;;;5049120;28;20485;-73
2021/05/30 08:48:38;;;;;;;6.10;4.37;;;17.10;47.50;;;;;;5040788;28;20939;-73
2021/05/30 08:51:05;;;;;;;10.10;5.70;;;17.20;47.70;;;;;;5042787;28;20494;-71
2021/05/30 08:53:37;;;;;;;6.50;3.83;;;17.30;47.50;;;;;;5041312;28;20462;-74
2021/05/30 08:56:05;;;;;;;4.37;3.57;;;17.30;47.00;;;;;;5027796;28;20484;-72
2021/05/30 08:58:38;;;;;;;5.83;3.77;;;17.40;47.00;;;;;;5045750;28;20791;-74
2021/05/30 09:01:16;;;;;;;8.17;3.90;;;17.50;46.30;;;;;;5034404;28;20801;-74
2021/05/30 09:04:07;;;;;;;6.23;3.57;;;17.50;46.30;;;;;;5027682;28;20473;-74
2021/05/30 09:06:39;;;;;;;4.90;3.90;;;17.60;46.30;;;;;;5025847;28;20447;-73
2021/05/30 09:09:08;;;;;;;5.10;3.90;;;17.70;45.80;;;;;;5027308;28;20428;-72
2021/05/30 09:11:46;;;;;;;6.17;3.47;;;17.70;45.40;;;;;;5027887;28;20423;-73
2021/05/30 09:14:19;;;;;;;4.43;3.30;;;17.70;45.30;;;;;;5035700;28;20849;-74
2021/05/30 09:16:54;;;;;;;4.27;2.90;;;17.80;43.10;;;;;;5028101;28;20609;-73
2021/05/30 09:19:51;;;;;;;5.90;3.70;;;17.80;42.70;;;;;;5027913;28;20438;-71
2021/05/30 09:22:40;;;;;;;5.13;3.60;;;17.90;43.40;;;;;;5028710;28;20511;-71
2021/05/30 09:25:22;;;;;;;4.50;3.20;;;17.90;44.20;;;;;;5027885;28;20507;-74
2021/05/30 09:27:47;;;;;;;5.03;3.00;;;18.00;43.70;;;;;;5027451;28;20436;-72
2021/05/30 09:30:27;;;;;;;6.43;3.63;;;17.80;43.50;;;;;;5027360;28;20647;-72
2021/05/30 09:33:04;;;;;;;7.00;3.77;;;17.80;43.90;;;;;;5017104;28;20197;-72
2021/05/30 09:35:49;;;;;;;6.50;4.13;;;17.70;44.30;;;;;;5026317;28;20567;-72
2021/05/30 09:38:21;;;;;;;5.30;3.60;;;17.60;45.30;;;;;;5040130;28;20426;-73
2021/05/30 09:40:47;;;;;;;6.93;4.10;;;17.80;44.30;;;;;;5034642;28;20420;-74
2021/05/30 09:43:23;;;;;;;5.60;3.67;;;17.80;44.30;;;;;;5040141;28;20423;-73
2021/05/30 09:46:04;;;;;;;6.13;4.07;;;17.50;46.50;;;;;;5040775;28;20204;-71
2021/05/30 09:48:31;;;;;;;4.50;3.70;;;17.30;46.90;;;;;;5034146;28;21246;-73
2021/05/30 09:53:52;;;;;;;6.67;3.50;;;17.10;47.10;;;;;;5037880;28;20419;-72
2021/05/30 09:56:37;;;;;;;5.50;3.43;;;17.40;47.40;;;;;;5038907;28;20487;-74
2021/05/30 09:59:14;;;;;;;5.60;3.13;;;17.60;44.60;;;;;;5041806;28;20429;-72
2021/05/30 10:02:08;;;;;;;4.60;3.50;;;17.50;45.00;;;;;;5038499;28;20434;-71
2021/05/30 10:04:35;;;;;;;5.70;3.43;;;17.20;45.70;;;;;;5039569;28;21098;-73
2021/05/30 10:07:04;;;;;;;5.13;3.50;;;17.30;45.70;;;;;;5029428;28;20476;-72
2021/05/30 10:09:30;;;;;;;8.90;3.80;;;17.10;45.00;;;;;;5033458;28;20498;-75
2021/05/30 10:11:57;;;;;;;6.47;3.23;;;17.20;45.40;;;;;;5030378;28;20432;-73
2021/05/30 10:14:24;;;;;;;6.30;3.50;;;17.70;45.30;;;;;;5037934;28;20824;-75
2021/05/30 10:16:50;;;;;;;4.87;3.63;;;18.30;43.90;;;;;;5039778;28;20527;-72
2021/05/30 10:19:45;;;;;;;7.87;3.73;;;18.60;41.50;;;;;;5050502;28;20946;-72
2021/05/30 10:22:11;;;;;;;4.90;3.53;;;19.00;41.80;;;;;;5050293;28;20694;-73
2021/05/30 10:24:43;;;;;;;7.30;3.60;;;18.90;42.30;;;;;;5044212;28;20507;-73
2021/05/30 10:27:24;;;;;;;8.43;3.73;;;18.80;42.20;;;;;;5030073;28;20459;-73
2021/05/30 10:30:11;;;;;;;6.07;4.00;;;18.70;42.20;;;;;;5037988;28;20898;-72
2021/05/30 10:32:39;;;;;;;5.77;3.53;;;18.60;42.20;;;;;;5044822;28;20949;-73
2021/05/30 10:35:25;;;;;;;6.83;4.33;;;18.50;42.80;;;;;;5042626;28;20514;-72
2021/05/30 10:37:53;;;;;;;6.07;3.97;;;18.70;43.00;;;;;;5042212;28;20477;-74
2021/05/30 10:40:21;;;;;;;4.20;3.17;;;19.10;42.00;;;;;;5037911;28;20424;-73
2021/05/30 10:45:43;;;;;;;5.87;3.17;;;19.50;40.40;;;;;;5043738;28;20431;-73
2021/05/30 10:48:11;;;;;;;5.40;3.40;;;19.50;39.80;;;;;;5036708;28;20439;-71
2021/05/30 10:50:41;;;;;;;7.70;3.70;;;19.80;39.40;;;;;;5029463;28;20812;-73
2021/05/30 10:53:35;;;;;;;4.93;4.00;;;20.20;39.00;;;;;;5030757;28;20522;-72
2021/05/30 10:56:33;;;;;;;5.40;3.37;;;20.10;37.40;;;;;;5031530;28;20487;-73
2021/05/30 10:59:10;;;;;;;5.90;3.50;;;19.40;37.60;;;;;;5031572;28;20434;-73
2021/05/30 11:04:23;;;;;;;8.10;3.77;;;19.30;38.00;;;;;;5028874;28;20473;-71
2021/05/30 11:06:54;;;;;;;5.83;3.77;;;19.00;38.60;;;;;;5018580;28;20487;-72
2021/05/30 11:09:20;;;;;;;6.00;3.63;;;18.90;38.60;;;;;;5045597;28;20439;-73
2021/05/30 11:12:06;;;;;;;5.50;3.40;;;19.20;38.20;;;;;;5043186;28;20941;-72
2021/05/30 11:14:32;;;;;;;4.70;3.77;;;19.10;39.10;;;;;;5035266;28;20440;-72
2021/05/30 11:16:58;;;;;;;4.80;3.40;;;19.30;38.60;;;;;;5027195;28;20544;-71
2021/05/30 11:19:23;;;;;;;7.17;3.20;;;19.20;38.60;;;;;;5031405;28;20671;-72
2021/05/30 11:21:50;;;;;;;4.50;3.30;;;19.20;38.60;;;;;;5037525;28;20197;-72
2021/05/30 11:24:21;;;;;;;5.60;3.90;;;19.30;37.90;;;;;;5024398;28;20633;-73
2021/05/30 11:27:04;;;;;;;4.50;3.03;;;19.20;38.00;;;;;;5027520;28;20914;-74
2021/05/30 11:29:31;;;;;;;4.53;2.80;;;19.10;35.90;;;;;;5010721;28;20436;-75
2021/05/30 11:32:02;;;;;;;3.40;3.10;;;19.00;36.20;;;;;;5026471;28;20468;-76
2021/05/30 11:34:34;;;;;;;5.37;3.27;;;19.00;36.80;;;;;;5038954;28;20958;-75
2021/05/30 11:37:11;;;;;;;6.63;3.67;;;18.40;37.20;;;;;;5040184;28;20505;-75
2021/05/30 11:39:39;;;;;;;5.93;3.27;;;18.40;37.60;;;;;;5053696;28;20425;-77
2021/05/30 11:42:05;;;;;;;7.00;3.40;;;18.70;36.20;;;;;;5034081;28;20492;-78
2021/05/30 11:44:32;;;;;;;7.43;3.43;;;18.90;36.20;;;;;;5043624;28;20429;-75
2021/05/30 11:47:00;;;;;;;5.80;3.17;;;19.40;36.30;;;;;;5043828;28;20471;-77
2021/05/30 11:49:29;;;;;;;5.23;3.40;;;19.50;36.80;;;;;;5033153;28;20518;-77
2021/05/30 11:52:01;;;;;;;4.13;2.50;;;19.90;35.90;;;;;;5046086;28;20471;-74
2021/05/30 11:54:34;;;;;;;4.63;3.10;;;19.90;34.80;;;;;;5037394;28;20937;-75
2021/05/30 11:57:05;;;;;;;4.13;3.37;;;20.20;34.40;;;;;;5027916;28;20471;-75
2021/05/30 11:59:38;;;;;;;5.03;3.37;;;20.30;34.90;;;;;;5032863;28;20412;-75
2021/05/30 12:02:04;;;;;;;5.00;3.60;;;20.10;36.30;;;;;;5045431;28;20436;-74
2021/05/30 12:04:32;;;;;;;4.63;3.30;;;20.30;36.00;;;;;;5033162;28;20425;-75
2021/05/30 12:06:58;;;;;;;7.93;4.07;;;20.50;36.00;;;;;;5036657;28;20791;-77
2021/05/30 12:09:47;;;;;;;5.90;3.87;;;21.00;34.90;;;;;;5035477;28;20811;-74
2021/05/30 12:12:35;;;;;;;6.20;3.93;;;21.60;32.30;;;;;;5019073;28;20434;-75
2021/05/30 12:15:18;;;;;;;5.67;3.50;;;21.30;32.10;;;;;;5022694;28;20480;-75
2021/05/30 12:18:04;;;;;;;5.30;3.10;;;21.50;31.20;;;;;;5029896;28;20461;-77
2021/05/30 12:20:37;;;;;;;5.80;4.30;;;21.70;30.50;;;;;;5020961;28;20409;-77
2021/05/30 12:23:22;;;;;;;5.27;3.47;;;22.00;30.40;;;;;;5040374;28;20413;-75
2021/05/30 12:26:03;;;;;;;6.17;3.73;;;22.10;30.90;;;;;;5037328;28;20444;-76
2021/05/30 12:28:33;;;;;;;4.10;3.00;;;22.40;30.50;;;;;;5038826;28;20415;-78
2021/05/30 12:31:04;;;;;;;5.40;3.20;;;22.50;30.50;;;;;;5039155;28;20435;-74
2021/05/30 12:33:50;;;;;;;7.17;3.50;;;21.90;30.70;;;;;;5036438;28;20470;-75
2021/05/30 12:36:29;;;;;;;7.70;3.40;;;21.20;32.30;;;;;;5043179;28;20533;-77
2021/05/30 12:39:15;;;;;;;4.60;3.33;;;21.50;31.90;;;;;;5032608;28;20525;-77
2021/05/30 12:41:44;;;;;;;5.10;3.40;;;21.60;31.50;;;;;;5032670;28;20425;-78
2021/05/30 12:44:16;;;;;;;6.30;3.27;;;20.80;33.30;;;;;;5020550;28;20453;-77
2021/05/30 12:46:55;;;;;;;4.40;3.27;;;21.40;31.70;;;;;;5060907;28;20460;-78
2021/05/30 12:49:21;;;;;;;7.40;3.37;;;20.50;32.30;;;;;;5053184;28;20511;-75
2021/05/30 12:52:04;;;;;;;4.63;2.97;;;20.90;32.10;;;;;;5037367;28;20893;-75
2021/05/30 12:54:32;;;;;;;6.10;3.60;;;21.90;30.70;;;;;;5029520;28;20414;-73
2021/05/30 12:56:59;;;;;;;5.07;2.80;;;22.20;29.70;;;;;;5039145;28;20501;-75
2021/05/30 12:59:28;;;;;;;6.70;3.10;;;22.40;29.50;;;;;;5042960;28;20431;-75
2021/05/30 13:01:56;;;;;;;5.73;3.77;;;21.30;31.90;;;;;;5045510;28;20425;-75
2021/05/30 13:04:44;;;;;;;4.00;3.33;;;21.30;32.80;;;;;;5041190;28;20520;-75
2021/05/30 13:07:20;;;;;;;4.60;3.27;;;21.30;33.20;;;;;;5037849;28;20437;-75
2021/05/30 13:09:53;;;;;;;4.47;3.20;;;21.80;31.90;;;;;;5037522;28;20422;-75